createdAt,value
2018-10-05T00:00:25.715Z,13.80
2018-10-05T00:02:54.214Z,13.93
2018-10-05T00:05:22.845Z,13.53
2018-10-05T00:07:51.444Z,12.13
2018-10-05T00:10:19.986Z,12.90
2018-10-05T00:12:48.499Z,12.77
2018-10-05T00:15:16.950Z,13.73
2018-10-05T00:17:45.371Z,13.53
2018-10-05T00:20:13.841Z,12.87
2018-10-05T00:22:42.384Z,13.57
2018-10-05T00:25:10.856Z,13.17
2018-10-05T00:27:39.388Z,13.17
2018-10-05T00:30:07.982Z,12.67
2018-10-05T00:32:36.581Z,13.57
2018-10-05T00:35:05.533Z,13.20
2018-10-05T00:37:34.046Z,13.73
2018-10-05T00:40:02.675Z,13.30
2018-10-05T00:42:31.171Z,11.83
2018-10-05T00:44:59.643Z,13.33
2018-10-05T00:47:28.089Z,13.47
2018-10-05T00:49:56.592Z,14.47
2018-10-05T00:52:25.125Z,13.00
2018-10-05T00:54:53.604Z,13.07
2018-10-05T00:57:22.046Z,12.90
2018-10-05T00:59:50.510Z,13.30
2018-10-05T01:02:18.942Z,13.53
2018-10-05T01:04:47.454Z,12.87
2018-10-05T01:07:15.930Z,12.50
2018-10-05T01:09:44.488Z,13.40
2018-10-05T01:12:13.129Z,13.57
2018-10-05T01:17:16.352Z,13.53
2018-10-05T01:19:44.978Z,12.97
2018-10-05T01:22:13.559Z,13.97
2018-10-05T01:24:42.167Z,14.30
2018-10-05T01:27:10.696Z,15.17
2018-10-05T01:29:39.360Z,13.77
2018-10-05T01:32:07.958Z,13.40
2018-10-05T01:34:36.434Z,13.83
2018-10-05T01:37:04.883Z,14.17
2018-10-05T01:39:33.469Z,14.63
2018-10-05T01:42:01.949Z,12.27
2018-10-05T01:44:30.444Z,13.57
2018-10-05T01:46:59.403Z,13.47
2018-10-05T01:49:27.840Z,13.87
2018-10-05T01:51:56.322Z,14.67
2018-10-05T01:54:25.080Z,14.80
2018-10-05T01:56:53.593Z,14.53
2018-10-05T01:59:22.047Z,15.20
2018-10-05T02:01:50.598Z,14.30
2018-10-05T02:04:19.172Z,14.87
2018-10-05T02:06:47.939Z,15.33
2018-10-05T02:09:16.376Z,14.53
2018-10-05T02:11:44.926Z,13.57
2018-10-05T02:14:13.376Z,14.97
2018-10-05T02:16:41.927Z,13.83
2018-10-05T02:19:10.413Z,15.10
2018-10-05T02:21:38.929Z,15.30
2018-10-05T02:24:07.656Z,17.17
2018-10-05T02:26:36.136Z,15.97
2018-10-05T02:29:04.642Z,17.40
2018-10-05T02:31:33.064Z,16.33
2018-10-05T02:34:01.533Z,16.33
2018-10-05T02:36:29.972Z,16.93
2018-10-05T02:38:58.461Z,15.80
2018-10-05T02:41:26.989Z,16.47
2018-10-05T02:43:55.463Z,16.17
2018-10-05T02:46:23.968Z,16.47
2018-10-05T02:48:52.477Z,16.33
2018-10-05T02:51:20.926Z,16.47
2018-10-05T02:53:49.417Z,16.93
2018-10-05T02:56:17.891Z,18.00
2018-10-05T02:58:46.339Z,17.03
2018-10-05T03:01:26.082Z,16.33
2018-10-05T03:03:54.766Z,16.13
2018-10-05T03:06:23.174Z,16.43
2018-10-05T03:08:51.661Z,16.57
2018-10-05T03:11:20.152Z,16.77
2018-10-05T03:13:48.724Z,16.47
2018-10-05T03:16:17.249Z,16.77
2018-10-05T03:18:45.801Z,16.83
2018-10-05T03:21:14.265Z,17.40
2018-10-05T03:23:42.711Z,18.03
2018-10-05T03:26:11.200Z,17.37
2018-10-05T03:28:39.653Z,16.77
2018-10-05T03:31:08.197Z,18.80
2018-10-05T03:33:36.702Z,17.87
2018-10-05T03:36:05.157Z,18.00
2018-10-05T03:38:33.758Z,17.13
2018-10-05T03:41:02.233Z,17.43
2018-10-05T03:43:30.641Z,18.70
2018-10-05T03:45:59.077Z,18.00
2018-10-05T03:48:27.562Z,18.07
2018-10-05T03:50:56.022Z,18.43
2018-10-05T03:53:24.523Z,17.57
2018-10-05T03:55:53.005Z,18.70
2018-10-05T03:58:21.542Z,18.53
2018-10-05T04:00:50.011Z,18.20
2018-10-05T04:03:18.505Z,18.27
2018-10-05T04:05:47.061Z,17.27
2018-10-05T04:08:15.675Z,17.17
2018-10-05T04:10:44.199Z,16.57
2018-10-05T04:13:12.726Z,17.90
2018-10-05T04:15:41.842Z,17.23
2018-10-05T04:18:10.436Z,17.07
2018-10-05T04:20:38.920Z,17.43
2018-10-05T04:23:07.647Z,17.20
2018-10-05T04:25:36.157Z,19.67
2018-10-05T04:28:04.672Z,18.83
2018-10-05T04:30:33.268Z,19.13
2018-10-05T04:33:01.783Z,18.97
2018-10-05T04:35:30.485Z,19.47
2018-10-05T04:37:58.981Z,18.90
2018-10-05T04:40:27.971Z,21.07
2018-10-05T04:42:56.427Z,20.60
2018-10-05T04:45:24.928Z,20.27
2018-10-05T04:47:53.443Z,18.93
2018-10-05T04:50:21.948Z,18.93
2018-10-05T04:52:50.398Z,19.37
2018-10-05T04:55:18.878Z,20.00
2018-10-05T04:57:47.422Z,20.30
2018-10-05T05:00:16.038Z,19.97
2018-10-05T05:02:44.576Z,20.23
2018-10-05T05:05:13.147Z,20.47
2018-10-05T05:07:41.597Z,19.53
2018-10-05T05:10:10.178Z,24.50
2018-10-05T05:12:38.836Z,52.90
2018-10-05T05:15:07.824Z,20.20
2018-10-05T05:17:36.333Z,20.10
2018-10-05T05:20:04.848Z,20.63
2018-10-05T05:22:33.340Z,19.93
2018-10-05T05:25:01.832Z,20.80
2018-10-05T05:27:30.378Z,20.90
2018-10-05T05:29:58.863Z,21.23
2018-10-05T05:32:27.338Z,19.70
2018-10-05T05:34:55.782Z,21.33
2018-10-05T05:37:24.456Z,18.97
2018-10-05T05:39:53.035Z,18.50
2018-10-05T05:42:21.533Z,15.83
2018-10-05T05:44:50.024Z,15.57
2018-10-05T05:47:18.604Z,14.70
2018-10-05T05:49:47.080Z,13.30
2018-10-05T05:52:15.516Z,13.47
2018-10-05T05:54:44.101Z,13.37
2018-10-05T05:57:12.613Z,12.73
2018-10-05T05:59:41.145Z,13.50
2018-10-05T06:02:09.649Z,13.00
2018-10-05T06:04:38.183Z,12.27
2018-10-05T06:07:06.837Z,11.50
2018-10-05T06:09:36.011Z,12.13
2018-10-05T06:12:04.476Z,11.43
2018-10-05T06:14:33.123Z,11.63
2018-10-05T06:17:01.671Z,12.73
2018-10-05T06:19:30.684Z,11.27
2018-10-05T06:21:59.357Z,10.67
2018-10-05T06:24:27.804Z,10.67
2018-10-05T06:26:56.284Z,11.37
2018-10-05T06:29:24.792Z,12.13
2018-10-05T06:31:53.300Z,11.70
2018-10-05T06:34:21.793Z,10.60
2018-10-05T06:36:50.313Z,10.40
2018-10-05T06:39:18.829Z,11.50
2018-10-05T06:41:47.422Z,12.07
2018-10-05T06:44:15.924Z,13.30
2018-10-05T06:46:44.574Z,12.67
2018-10-05T06:49:13.187Z,13.37
2018-10-05T06:51:41.647Z,11.50
2018-10-05T06:54:10.139Z,12.10
2018-10-05T06:56:38.627Z,12.30
2018-10-05T06:59:07.405Z,12.30
2018-10-05T07:01:36.057Z,11.80
2018-10-05T07:04:04.586Z,11.30
2018-10-05T07:06:33.178Z,12.37
2018-10-05T07:09:01.733Z,12.63
2018-10-05T07:11:30.288Z,12.87
2018-10-05T07:13:58.803Z,14.00
2018-10-05T07:16:27.446Z,13.83
2018-10-05T07:18:56.011Z,15.43
2018-10-05T07:21:24.839Z,17.80
2018-10-05T07:23:53.283Z,16.33
2018-10-05T07:26:21.862Z,15.10
2018-10-05T07:28:50.442Z,13.97
2018-10-05T07:31:20.085Z,13.23
2018-10-05T07:33:48.668Z,12.47
2018-10-05T07:36:17.224Z,14.07
2018-10-05T07:38:45.707Z,14.20
2018-10-05T07:41:14.229Z,14.27
2018-10-05T07:43:42.833Z,12.93
2018-10-05T07:46:11.758Z,13.47
2018-10-05T07:48:40.281Z,13.57
2018-10-05T07:51:08.805Z,13.23
2018-10-05T07:53:37.285Z,13.83
2018-10-05T07:56:05.808Z,14.47
2018-10-05T07:58:34.451Z,12.93
2018-10-05T08:01:03.101Z,12.40
2018-10-05T08:03:31.717Z,12.40
2018-10-05T08:06:00.401Z,12.23
2018-10-05T08:08:28.933Z,11.90
2018-10-05T08:10:57.475Z,11.23
2018-10-05T08:13:26.097Z,10.17
2018-10-05T08:15:54.565Z,10.37
2018-10-05T08:18:23.091Z,10.87
2018-10-05T08:20:51.667Z,10.23
2018-10-05T08:23:20.110Z,11.07
2018-10-05T08:25:48.608Z,10.13
2018-10-05T08:28:17.096Z,11.17
2018-10-05T08:30:45.662Z,10.70
2018-10-05T08:33:14.186Z,11.10
2018-10-05T08:35:42.725Z,10.23
2018-10-05T08:38:11.309Z,10.43
2018-10-05T08:40:39.793Z,10.90
2018-10-05T08:43:08.330Z,10.97
2018-10-05T08:45:36.969Z,10.40
2018-10-05T08:48:05.575Z,10.27
2018-10-05T08:50:34.089Z,10.87
2018-10-05T08:53:02.651Z,10.23
2018-10-05T08:55:31.217Z,10.00
2018-10-05T08:57:59.807Z,10.40
2018-10-05T09:00:28.795Z,10.10
2018-10-05T09:02:57.359Z,11.27
2018-10-05T09:05:25.887Z,10.43
2018-10-05T09:07:54.499Z,10.43
2018-10-05T09:10:23.944Z,10.33
2018-10-05T09:12:52.483Z,13.07
2018-10-05T09:15:21.013Z,10.90
2018-10-05T09:17:49.630Z,10.13
2018-10-05T09:20:18.141Z,9.50
2018-10-05T09:22:46.607Z,9.63
2018-10-05T09:25:15.114Z,9.03
2018-10-05T09:27:43.726Z,9.60
2018-10-05T09:30:12.364Z,9.67
2018-10-05T09:32:40.964Z,8.50
2018-10-05T09:35:09.533Z,8.33
2018-10-05T09:37:38.113Z,7.80
2018-10-05T09:40:06.719Z,8.23
2018-10-05T09:42:35.278Z,8.43
2018-10-05T09:45:03.862Z,8.10
2018-10-05T09:47:32.354Z,7.23
2018-10-05T09:50:00.943Z,7.90
2018-10-05T09:52:29.545Z,7.20
2018-10-05T09:54:58.046Z,7.23
2018-10-05T09:57:26.768Z,7.50
2018-10-05T09:59:55.340Z,7.60
2018-10-05T10:02:29.249Z,7.00
2018-10-05T10:04:57.740Z,7.20
2018-10-05T10:07:26.229Z,7.47
2018-10-05T10:09:54.669Z,7.77
2018-10-05T10:12:23.159Z,6.70
2018-10-05T10:14:51.780Z,8.20
2018-10-05T10:17:20.328Z,6.80
2018-10-05T10:19:48.835Z,6.50
2018-10-05T10:22:17.414Z,6.90
2018-10-05T10:24:46.040Z,6.00
2018-10-05T10:27:14.550Z,6.37
2018-10-05T10:29:43.137Z,6.40
2018-10-05T10:32:11.790Z,6.53
2018-10-05T10:34:40.457Z,6.20
2018-10-05T10:37:09.024Z,6.60
2018-10-05T10:39:37.587Z,6.53
2018-10-05T10:42:05.764Z,7.13
2018-10-05T10:44:34.402Z,5.97
2018-10-05T10:47:03.012Z,6.30
2018-10-05T10:49:31.692Z,6.20
2018-10-05T10:52:00.319Z,5.80
2018-10-05T10:54:28.889Z,6.27
2018-10-05T10:56:57.469Z,6.93
2018-10-05T10:59:25.975Z,6.53
2018-10-05T11:01:54.607Z,6.23
2018-10-05T11:04:23.150Z,5.87
2018-10-05T11:06:51.642Z,5.63
2018-10-05T11:09:20.263Z,5.20
2018-10-05T11:11:48.925Z,4.80
2018-10-05T11:14:17.531Z,5.10
2018-10-05T11:16:46.191Z,4.43
2018-10-05T11:19:14.765Z,4.20
2018-10-05T11:21:43.317Z,4.13
2018-10-05T11:24:11.807Z,5.10
2018-10-05T11:26:40.301Z,4.60
2018-10-05T11:29:08.868Z,4.87
2018-10-05T11:31:37.485Z,4.50
2018-10-05T11:34:06.081Z,4.83
2018-10-05T11:36:34.678Z,4.40
2018-10-05T11:39:03.548Z,4.43
2018-10-05T11:41:32.090Z,4.40
2018-10-05T11:44:02.720Z,4.90
2018-10-05T11:46:31.382Z,4.17
2018-10-05T11:48:59.848Z,4.87
2018-10-05T11:51:28.818Z,4.17
2018-10-05T11:53:57.391Z,4.73
2018-10-05T11:56:25.946Z,4.10
2018-10-05T11:58:54.578Z,4.37
2018-10-05T12:01:23.696Z,4.10
2018-10-05T12:03:52.851Z,3.63
2018-10-05T12:06:21.403Z,3.73
2018-10-05T12:08:49.933Z,4.33
2018-10-05T12:11:18.559Z,3.70
2018-10-05T12:13:47.130Z,4.20
2018-10-05T12:16:15.711Z,3.73
2018-10-05T12:18:44.298Z,3.93
2018-10-05T12:21:12.857Z,4.30
2018-10-05T12:23:41.469Z,3.73
2018-10-05T12:26:10.084Z,3.73
2018-10-05T12:28:38.682Z,3.70
2018-10-05T12:31:07.313Z,3.60
2018-10-05T12:33:36.061Z,3.87
2018-10-05T12:36:04.737Z,3.83
2018-10-05T12:38:33.246Z,3.57
2018-10-05T12:41:01.882Z,3.57
2018-10-05T12:43:30.448Z,3.67
2018-10-05T12:45:59.007Z,3.70
2018-10-05T12:48:27.611Z,3.53
2018-10-05T12:50:56.848Z,3.73
2018-10-05T12:53:25.397Z,3.73
2018-10-05T12:55:54.031Z,4.40
2018-10-05T12:58:23.086Z,3.80
2018-10-05T13:00:51.668Z,4.10
2018-10-05T13:03:20.360Z,3.73
2018-10-05T13:05:48.998Z,3.50
2018-10-05T13:08:17.592Z,3.83
2018-10-05T13:10:46.184Z,3.50
2018-10-05T13:13:14.750Z,3.63
2018-10-05T13:15:43.297Z,3.93
2018-10-05T13:18:12.146Z,3.57
2018-10-05T13:20:40.920Z,3.37
2018-10-05T13:23:09.890Z,3.57
2018-10-05T13:25:38.831Z,3.60
2018-10-05T13:28:07.506Z,3.60
2018-10-05T13:30:36.072Z,3.57
2018-10-05T13:33:04.692Z,2.90
2018-10-05T13:35:33.346Z,3.13
2018-10-05T13:38:01.999Z,3.27
2018-10-05T13:40:30.652Z,3.40
2018-10-05T13:42:59.207Z,3.20
2018-10-05T13:45:27.805Z,3.37
2018-10-05T13:47:56.411Z,3.43
2018-10-05T13:50:25.140Z,3.60
2018-10-05T13:52:53.703Z,3.57
2018-10-05T13:55:25.257Z,3.00
2018-10-05T13:57:53.824Z,4.30
2018-10-05T14:00:22.456Z,3.80
2018-10-05T14:02:51.074Z,3.80
2018-10-05T14:05:19.755Z,4.13
2018-10-05T14:07:48.462Z,3.90
2018-10-05T14:10:17.277Z,4.57
2018-10-05T14:12:46.629Z,4.43
2018-10-05T14:15:15.216Z,4.03
2018-10-05T14:17:43.826Z,4.53
2018-10-05T14:20:12.565Z,3.87
2018-10-05T14:22:41.197Z,3.90
2018-10-05T14:25:09.915Z,3.67
2018-10-05T14:27:38.487Z,3.60
2018-10-05T14:30:07.242Z,3.73
2018-10-05T14:32:35.860Z,3.87
2018-10-05T14:35:04.499Z,3.83
2018-10-05T14:37:33.067Z,3.97
2018-10-05T14:40:01.772Z,3.90
2018-10-05T14:42:31.020Z,3.63
2018-10-05T14:44:59.648Z,4.03
2018-10-05T14:47:28.498Z,4.33
2018-10-05T14:49:58.100Z,3.57
2018-10-05T14:52:27.508Z,4.03
2018-10-05T14:55:01.561Z,4.50
2018-10-05T14:57:30.438Z,4.33
2018-10-05T15:00:00.019Z,4.10
2018-10-05T15:02:29.007Z,4.00
2018-10-05T15:04:58.274Z,4.33
2018-10-05T15:07:27.051Z,3.40
2018-10-05T15:09:56.162Z,3.90
2018-10-05T15:12:25.495Z,3.80
2018-10-05T15:14:54.376Z,4.20
2018-10-05T15:17:23.713Z,4.00
2018-10-05T15:19:53.253Z,3.87
2018-10-05T15:22:23.105Z,3.73
2018-10-05T15:24:52.323Z,4.50
2018-10-05T15:27:21.541Z,4.07
2018-10-05T15:29:52.021Z,4.77
2018-10-05T15:32:21.033Z,4.93
2018-10-05T15:34:50.758Z,4.37
2018-10-05T15:37:19.739Z,4.17
2018-10-05T15:39:48.623Z,4.23
2018-10-05T15:42:17.988Z,4.50
2018-10-05T15:44:46.924Z,4.53
2018-10-05T15:47:16.750Z,4.50
2018-10-05T15:49:45.953Z,4.00
2018-10-05T15:52:14.718Z,3.97
2018-10-05T15:54:43.662Z,4.17
2018-10-05T15:57:12.391Z,4.57
2018-10-05T15:59:41.137Z,4.30
2018-10-05T16:02:10.072Z,4.40
2018-10-05T16:04:39.857Z,4.27
2018-10-05T16:07:08.788Z,4.57
2018-10-05T16:09:37.778Z,4.53
2018-10-05T16:12:06.576Z,3.97
2018-10-05T16:14:35.371Z,4.20
2018-10-05T16:17:04.138Z,3.97
2018-10-05T16:19:33.615Z,4.10
2018-10-05T16:22:02.650Z,3.83
2018-10-05T16:24:35.703Z,4.17
2018-10-05T16:27:04.815Z,4.70
2018-10-05T16:29:33.729Z,4.63
2018-10-05T16:32:02.733Z,4.80
2018-10-05T16:34:31.789Z,14.53
2018-10-05T16:37:00.547Z,5.03
2018-10-05T16:39:29.541Z,5.07
2018-10-05T16:41:58.479Z,4.80
2018-10-05T16:44:27.703Z,4.93
2018-10-05T16:46:56.624Z,5.03
2018-10-05T16:49:25.570Z,5.63
2018-10-05T16:51:54.451Z,5.50
2018-10-05T16:54:23.609Z,5.20
2018-10-05T16:56:52.526Z,5.40
2018-10-05T16:59:21.334Z,6.28
2018-10-05T17:01:50.155Z,5.37
2018-10-05T17:04:19.244Z,6.47
2018-10-05T17:06:48.042Z,5.90
2018-10-05T17:09:17.135Z,6.10
2018-10-05T17:11:46.661Z,6.43
2018-10-05T17:14:16.189Z,6.27
2018-10-05T17:16:45.587Z,14.97
2018-10-05T17:19:14.512Z,7.00
2018-10-05T17:21:43.838Z,6.47
2018-10-05T17:24:13.245Z,6.50
2018-10-05T17:26:42.469Z,7.10
2018-10-05T17:29:11.881Z,8.10
2018-10-05T17:31:42.266Z,6.90
2018-10-05T17:34:11.517Z,7.57
2018-10-05T17:36:40.681Z,8.37
2018-10-05T17:39:11.141Z,10.10
2018-10-05T17:41:40.069Z,10.93
2018-10-05T17:44:09.433Z,10.47
2018-10-05T17:46:38.733Z,9.87
2018-10-05T17:49:08.119Z,8.53
2018-10-05T17:51:37.359Z,8.07
2018-10-05T17:54:08.962Z,8.83
2018-10-05T17:56:38.370Z,9.87
2018-10-05T17:59:07.407Z,9.03
2018-10-05T18:01:42.888Z,10.80
2018-10-05T18:04:12.053Z,9.80
2018-10-05T18:06:40.813Z,10.63
2018-10-05T18:09:11.236Z,10.43
2018-10-05T18:11:40.436Z,8.80
2018-10-05T18:14:09.577Z,9.47
2018-10-05T18:16:38.580Z,34.90
2018-10-05T18:19:07.747Z,36.70
2018-10-05T18:21:36.579Z,27.47
2018-10-05T18:24:05.777Z,68.50
2018-10-05T18:26:35.280Z,15.47
2018-10-05T18:29:04.654Z,10.40
2018-10-05T18:31:34.038Z,13.00
2018-10-05T18:34:03.657Z,44.75
2018-10-05T18:36:33.225Z,28.30
2018-10-05T18:39:02.836Z,10.63
2018-10-05T18:41:32.579Z,58.93
2018-10-05T18:44:02.081Z,12.87
2018-10-05T18:46:31.387Z,19.90
2018-10-05T18:49:00.814Z,15.70
2018-10-05T18:51:30.912Z,26.67
2018-10-05T18:54:00.641Z,26.83
2018-10-05T18:56:40.570Z,15.73
2018-10-05T18:59:10.098Z,36.03
2018-10-05T19:01:39.170Z,23.23
2018-10-05T19:04:08.539Z,11.83
2018-10-05T19:06:37.645Z,10.60
2018-10-05T19:09:07.360Z,12.27
2018-10-05T19:11:37.314Z,11.10
2018-10-05T19:14:06.721Z,12.17
2018-10-05T19:16:36.120Z,12.47
2018-10-05T19:19:05.322Z,11.30
2018-10-05T19:21:35.833Z,17.30
2018-10-05T19:24:05.993Z,23.77
2018-10-05T19:26:36.004Z,58.07
2018-10-05T19:29:06.406Z,80.87
2018-10-05T19:31:35.347Z,15.73
2018-10-05T19:34:04.708Z,30.43
2018-10-05T19:36:34.097Z,10.40
2018-10-05T19:39:03.997Z,10.37
2018-10-05T19:41:33.821Z,10.70
2018-10-05T19:44:03.233Z,53.43
2018-10-05T19:46:32.102Z,9.80
2018-10-05T19:49:00.951Z,9.77
2018-10-05T19:51:30.053Z,10.53
2018-10-05T19:53:59.225Z,10.67
2018-10-05T19:56:28.282Z,10.67
2018-10-05T19:58:57.001Z,10.60
2018-10-05T20:01:25.967Z,11.90
2018-10-05T20:03:54.643Z,11.27
2018-10-05T20:06:24.182Z,11.00
2018-10-05T20:08:52.849Z,12.80
2018-10-05T20:11:21.708Z,14.63
2018-10-05T20:13:50.422Z,13.03
2018-10-05T20:16:19.314Z,12.63
2018-10-05T20:18:48.034Z,11.70
2018-10-05T20:21:16.825Z,12.20
2018-10-05T20:23:45.498Z,13.27
2018-10-05T20:26:14.262Z,12.97
2018-10-05T20:28:43.764Z,13.80
2018-10-05T20:31:12.482Z,14.73
2018-10-05T20:33:41.069Z,13.93
2018-10-05T20:36:10.154Z,15.10
2018-10-05T20:38:39.242Z,15.13
2018-10-05T20:41:08.057Z,15.73
2018-10-05T20:43:36.663Z,15.10
2018-10-05T20:46:05.580Z,14.70
2018-10-05T20:48:34.293Z,15.67
2018-10-05T20:51:02.967Z,14.77
2018-10-05T20:53:31.532Z,14.77
2018-10-05T20:56:00.360Z,15.60
2018-10-05T20:58:29.109Z,14.83
2018-10-05T21:00:57.858Z,16.20
2018-10-05T21:03:26.697Z,14.37
2018-10-05T21:05:55.498Z,15.97
2018-10-05T21:08:24.212Z,15.20
2018-10-05T21:10:52.934Z,15.57
2018-10-05T21:13:21.550Z,16.10
2018-10-05T21:15:50.632Z,15.73
2018-10-05T21:18:19.204Z,15.87
2018-10-05T21:20:47.967Z,15.90
2018-10-05T21:23:16.718Z,16.80
2018-10-05T21:25:46.356Z,15.67
2018-10-05T21:28:15.086Z,15.80
2018-10-05T21:30:43.641Z,15.20
2018-10-05T21:33:12.500Z,15.47
2018-10-05T21:35:41.481Z,17.13
2018-10-05T21:38:10.318Z,16.53
2018-10-05T21:40:39.001Z,16.33
2018-10-05T21:43:07.779Z,15.90
2018-10-05T21:45:36.944Z,15.77
2018-10-05T21:48:05.739Z,15.67
2018-10-05T21:50:34.482Z,17.03
2018-10-05T21:53:03.371Z,17.40
2018-10-05T21:55:32.380Z,17.30
2018-10-05T21:58:01.101Z,16.10
2018-10-05T22:00:36.035Z,16.77
2018-10-05T22:03:04.842Z,16.33
2018-10-05T22:05:33.587Z,16.23
2018-10-05T22:08:02.296Z,17.50
2018-10-05T22:10:31.037Z,16.27
2018-10-05T22:12:59.786Z,16.83
2018-10-05T22:15:28.463Z,16.73
2018-10-05T22:17:57.261Z,15.47
2018-10-05T22:20:25.950Z,15.47
2018-10-05T22:22:54.588Z,15.60
2018-10-05T22:25:23.598Z,16.27
2018-10-05T22:27:52.376Z,15.93
2018-10-05T22:30:20.994Z,15.70
2018-10-05T22:32:50.012Z,16.20
2018-10-05T22:35:18.713Z,15.50
2018-10-05T22:37:47.200Z,16.67
2018-10-05T22:40:15.934Z,15.07
2018-10-05T22:42:44.606Z,15.47
2018-10-05T22:45:13.207Z,14.63
2018-10-05T22:47:41.832Z,14.03
2018-10-05T22:50:10.408Z,14.53
2018-10-05T22:52:39.016Z,14.10
2018-10-05T22:55:07.787Z,13.30
2018-10-05T22:57:36.319Z,13.10
2018-10-05T23:00:05.246Z,13.67
2018-10-05T23:02:33.750Z,14.17
2018-10-05T23:05:02.317Z,14.40
2018-10-05T23:07:30.814Z,15.63
2018-10-05T23:09:59.381Z,14.77
2018-10-05T23:12:27.865Z,14.57
2018-10-05T23:14:56.342Z,14.33
2018-10-05T23:17:24.874Z,15.23
2018-10-05T23:19:53.436Z,14.67
2018-10-05T23:22:21.922Z,14.20
2018-10-05T23:24:50.429Z,14.47
2018-10-05T23:27:18.932Z,13.37
2018-10-05T23:29:47.482Z,13.80
2018-10-05T23:32:16.115Z,13.63
2018-10-05T23:34:44.640Z,13.93
2018-10-05T23:37:13.247Z,12.27
2018-10-05T23:39:41.723Z,12.47
2018-10-05T23:42:10.310Z,13.00
2018-10-05T23:44:38.851Z,12.23
2018-10-05T23:47:07.474Z,12.63
2018-10-05T23:49:36.022Z,12.50
2018-10-05T23:52:49.769Z,12.47
2018-10-05T23:55:18.442Z,12.73
2018-10-05T23:57:47.416Z,11.87
